Time;durP1;ratioP1;P1;durP2;ratioP2;P2;SDS_P1;SDS_P2;PMS_P1;PMS_P2;Temp;Humidity;BMP_temperature;BMP_pressure;BME280_temperature;BME280_humidity;BME280_pressure;Samples;Min_cycle;Max_cycle;Signal;HPM_P1;HPM_P2
2022/04/18 00:01:27;;;;;;;9.45;7.35;;;;;;;22.60;47.79;99634.31;5015244;28;20041;-88
2022/04/18 00:07:15;;;;;;;9.63;7.38;;;;;;;22.59;47.73;99637.94;5012695;28;20044;-89
2022/04/18 00:09:41;;;;;;;9.88;7.82;;;;;;;22.59;47.73;99637.94;5015970;28;20094;-87
2022/04/18 00:12:08;;;;;;;9.27;7.13;;;;;;;22.57;47.85;99629.22;5014735;28;20038;-88
2022/04/18 00:14:34;;;;;;;10.02;7.72;;;;;;;22.59;47.69;99632.63;5010013;28;20039;-88
2022/04/18 00:17:00;;;;;;;9.77;6.85;;;;;;;22.58;47.76;99630.94;5010639;28;20072;-88
2022/04/18 00:19:27;;;;;;;9.57;6.63;;;;;;;22.58;47.78;99625.59;5014285;28;20040;-88
2022/04/18 00:22:30;;;;;;;8.25;6.43;;;;;;;22.59;47.97;99632.63;5007877;28;20114;-89
2022/04/18 00:24:55;;;;;;;9.77;6.72;;;;;;;22.57;47.81;99629.22;5007052;28;20038;-87
2022/04/18 00:27:21;;;;;;;10.18;7.03;;;;;;;22.57;47.87;99623.91;5002545;28;20474;-89
2022/04/18 00:29:47;;;;;;;9.73;7.32;;;;;;;22.57;47.81;99619.44;5000261;28;20124;-89
2022/04/18 00:32:17;;;;;;;9.23;7.40;;;;;;;22.56;47.89;99622.22;5009779;28;20065;-88
2022/04/18 00:34:43;;;;;;;8.93;6.68;;;;;;;22.52;47.91;99611.75;5016102;28;20030;-89
2022/04/18 00:37:10;;;;;;;9.15;6.78;;;;;;;22.52;47.90;99609.09;5015151;28;20029;-88
2022/04/18 00:39:36;;;;;;;8.77;6.65;;;;;;;22.53;47.91;99610.78;4986161;28;20058;-87
2022/04/18 00:42:02;;;;;;;9.43;7.25;;;;;;;22.54;47.77;99598.38;5013800;28;20037;-89
2022/04/18 00:44:28;;;;;;;8.77;6.72;;;;;;;22.51;47.93;99599.38;5016056;28;20041;-88
2022/04/18 00:46:57;;;;;;;9.23;7.50;;;;;;;22.52;47.85;99594.97;5002619;28;20015;-88
2022/04/18 00:49:25;;;;;;;10.30;7.82;;;;;;;22.52;47.87;99589.66;5002577;28;20034;-89
2022/04/18 00:51:51;;;;;;;10.02;7.95;;;;;;;22.50;47.91;99597.69;5002432;28;20031;-88
2022/04/18 00:54:22;;;;;;;9.15;7.47;;;;;;;22.52;47.88;99601.13;5017910;28;20060;-88
2022/04/18 00:56:48;;;;;;;10.38;7.82;;;;;;;22.51;47.98;99596.72;5001567;28;20066;-89
2022/04/18 00:59:14;;;;;;;9.68;7.22;;;;;;;22.49;47.75;99595.97;5015708;28;20034;-89
2022/04/18 01:01:46;;;;;;;9.05;7.60;;;;;;;22.50;47.83;99587.06;5019162;28;20044;-88
2022/04/18 01:04:13;;;;;;;8.95;7.28;;;;;;;22.49;47.57;99593.31;4994129;28;20034;-89
2022/04/18 01:06:40;;;;;;;9.45;7.38;;;;;;;22.48;47.77;99586.28;5008259;28;20133;-89
2022/04/18 01:09:06;;;;;;;9.95;7.47;;;;;;;22.48;47.88;99585.44;5016996;28;20026;-90
2022/04/18 01:11:34;;;;;;;10.20;7.78;;;;;;;22.49;47.76;99589.81;4985712;28;20065;-90
2022/04/18 01:14:02;;;;;;;8.63;6.38;;;;;;;22.48;47.71;99586.28;4982245;28;20034;-88
2022/04/18 01:16:28;;;;;;;10.25;7.20;;;;;;;22.49;47.88;99585.34;5015460;28;20030;-88
2022/04/18 01:21:39;;;;;;;11.00;7.70;;;;;;;22.48;47.76;99577.47;4969194;29;20453;-89
2022/04/18 01:28:58;;;;;;;8.77;6.53;;;;;;;22.46;47.62;99574.91;5002171;28;20034;-88
2022/04/18 01:29:34;;;;;;;8.63;6.50;;;;;;;22.47;47.75;99576.59;5011126;28;20037;-89
2022/04/18 01:32:00;;;;;;;8.07;6.22;;;;;;;22.45;47.79;99573.19;5003343;28;20022;-89
2022/04/18 01:34:26;;;;;;;8.43;6.45;;;;;;;22.46;47.59;99574.06;5002819;28;20035;-89
2022/04/18 01:36:51;;;;;;;8.43;5.97;;;;;;;22.45;47.51;99575.00;5004209;28;20452;-88
2022/04/18 01:39:17;;;;;;;7.55;6.30;;;;;;;22.47;47.59;99573.09;5004350;28;20478;-88
2022/04/18 01:41:42;;;;;;;7.95;6.15;;;;;;;22.43;47.66;99575.13;5007321;28;20449;-89
2022/04/18 01:44:08;;;;;;;8.63;6.18;;;;;;;22.44;47.60;99571.50;5011029;28;20041;-89
2022/04/18 01:46:33;;;;;;;7.63;5.65;;;;;;;22.42;47.74;99568.06;5013223;28;20026;-89
2022/04/18 01:48:59;;;;;;;7.47;5.78;;;;;;;22.43;47.76;99575.13;5007820;28;20040;-88
2022/04/18 01:51:24;;;;;;;9.00;6.45;;;;;;;22.45;47.65;99567.88;5006678;28;20448;-89
2022/04/18 01:53:50;;;;;;;8.07;5.90;;;;;;;22.45;47.81;99565.22;5006406;28;20445;-89
2022/04/18 01:56:15;;;;;;;7.88;5.55;;;;;;;22.44;47.72;99566.19;5008164;28;20066;-89
2022/04/18 01:58:41;;;;;;;6.65;4.85;;;;;;;22.42;47.89;99562.75;5009425;28;20064;-88
2022/04/18 02:01:07;;;;;;;6.88;5.13;;;;;;;22.42;47.72;99567.22;5009422;28;20090;-86
2022/04/18 02:03:33;;;;;;;7.00;5.50;;;;;;;22.38;47.57;99555.94;5010149;28;20040;-88
2022/04/18 02:05:59;;;;;;;6.88;5.47;;;;;;;22.37;47.89;99559.56;5006774;28;20060;-87
2022/04/18 02:08:26;;;;;;;7.00;5.20;;;;;;;22.37;47.68;99559.56;5023045;28;20349;-87
2022/04/18 02:10:52;;;;;;;8.25;5.35;;;;;;;22.39;47.72;99555.00;5005444;28;20050;-87
2022/04/18 02:13:19;;;;;;;7.13;5.07;;;;;;;22.39;47.48;99552.34;4990982;28;20064;-86
2022/04/18 02:15:45;;;;;;;6.72;4.78;;;;;;;22.42;47.58;99551.28;5007103;28;20046;-87
2022/04/18 02:18:10;;;;;;;7.13;4.78;;;;;;;22.38;47.71;99551.47;5007246;28;20025;-86
2022/04/18 02:20:36;;;;;;;7.05;5.00;;;;;;;22.36;47.58;99542.75;5007170;28;20029;-87
2022/04/18 02:23:02;;;;;;;6.90;4.70;;;;;;;22.37;47.70;99543.63;5007251;28;20116;-88
2022/04/18 02:25:27;;;;;;;7.70;5.00;;;;;;;22.36;47.83;99541.88;5004728;28;20032;-89
2022/04/18 02:27:53;;;;;;;7.13;5.03;;;;;;;22.33;47.84;99537.63;5004613;28;20143;-88
2022/04/18 02:30:19;;;;;;;6.70;4.80;;;;;;;22.34;47.84;99549.13;5004268;28;20041;-87
2022/04/18 02:32:47;;;;;;;6.55;4.60;;;;;;;22.34;47.60;99543.81;5010616;28;20029;-87
2022/04/18 02:35:17;;;;;;;6.05;4.82;;;;;;;22.33;47.90;99545.59;5030060;28;20041;-88
2022/04/18 02:37:43;;;;;;;6.00;4.35;;;;;;;22.33;47.79;99540.28;5014133;28;20049;-88
2022/04/18 02:40:09;;;;;;;6.40;4.93;;;;;;;22.36;47.69;99541.88;5013199;28;20036;-89
2022/04/18 02:42:35;;;;;;;6.60;4.57;;;;;;;22.35;47.80;99540.19;5011003;28;20112;-88
2022/04/18 02:45:01;;;;;;;5.88;4.40;;;;;;;22.34;47.98;99543.81;5001814;28;20034;-89
2022/04/18 02:47:26;;;;;;;6.13;4.40;;;;;;;;;;5000443;28;20034;-86
2022/04/18 02:49:51;;;;;;;4.93;3.65;;;;;;;22.33;47.55;99539.44;5000394;28;20472;-87
2022/04/18 02:52:17;;;;;;;5.95;4.50;;;;;;;22.32;47.75;99530.59;5002650;28;20064;-87
2022/04/18 02:54:44;;;;;;;5.55;4.38;;;;;;;22.33;47.50;99531.47;5007383;28;20041;-87
2022/04/18 02:57:11;;;;;;;7.03;4.18;;;;;;;22.31;47.78;99528.91;5010861;28;20042;-88
2022/04/18 02:59:37;;;;;;;6.88;4.95;;;;;;;22.30;47.67;99526.34;5014622;28;20028;-90
2022/04/18 03:02:04;;;;;;;6.68;4.20;;;;;;;22.27;47.65;99522.94;5019234;28;20117;-89
2022/04/18 03:04:30;;;;;;;5.43;4.18;;;;;;;22.30;47.64;99526.34;5020494;28;20045;-89
2022/04/18 03:07:00;;;;;;;5.55;3.92;;;;;;;22.30;47.70;99521.91;5021131;28;20030;-90
2022/04/18 03:09:26;;;;;;;6.10;3.97;;;;;;;22.25;47.67;99516.88;4985221;28;20049;-87
2022/04/18 03:11:51;;;;;;;6.10;4.35;;;;;;;22.27;47.67;99511.44;5008688;28;20459;-87
2022/04/18 03:14:17;;;;;;;5.95;4.15;;;;;;;22.29;47.42;99514.00;5006728;28;20022;-87
2022/04/18 03:16:43;;;;;;;5.18;4.10;;;;;;;22.29;47.76;99508.69;5006912;28;20085;-87
2022/04/18 03:19:08;;;;;;;5.20;3.85;;;;;;;22.26;47.75;99513.28;5006231;28;20558;-87
2022/04/18 03:21:34;;;;;;;5.47;4.10;;;;;;;22.28;47.54;99507.88;5006373;28;20068;-88
2022/04/18 03:23:59;;;;;;;5.55;3.90;;;;;;;22.25;47.62;99503.59;5008045;28;20022;-86
2022/04/18 03:26:25;;;;;;;5.22;3.80;;;;;;;22.25;47.71;99503.59;5008789;28;20026;-86
2022/04/18 03:28:51;;;;;;;6.63;4.00;;;;;;;22.23;47.59;99496.69;5009457;28;20036;-88
2022/04/18 03:31:16;;;;;;;5.72;3.90;;;;;;;22.24;47.72;99490.41;5008514;28;20428;-88
2022/04/18 03:33:42;;;;;;;4.93;3.75;;;;;;;22.24;47.58;99490.41;5005429;28;20021;-88
2022/04/18 03:41:36;;;;;;;5.10;3.70;;;;;;;22.18;47.62;99486.31;5023589;28;20092;-89
2022/04/18 03:44:01;;;;;;;5.05;3.65;;;;;;;22.16;47.73;99488.25;5016756;28;20026;-90
2022/04/18 03:46:27;;;;;;;4.75;3.53;;;;;;;22.17;47.95;99492.59;5024166;28;20088;-89
2022/04/18 03:48:53;;;;;;;4.80;3.53;;;;;;;22.17;47.86;99483.78;5011096;28;20033;-89
2022/04/18 03:51:19;;;;;;;4.93;3.40;;;;;;;22.17;47.86;99489.94;5008668;28;20467;-89
2022/04/18 03:53:44;;;;;;;4.65;3.50;;;;;;;22.16;47.59;99492.69;5010398;28;20037;-89
2022/04/18 03:56:10;;;;;;;4.70;3.30;;;;;;;22.14;47.75;99492.81;5012010;28;20034;-89
2022/04/18 03:58:35;;;;;;;4.93;3.80;;;;;;;22.13;47.59;99488.47;5010586;28;20119;-89
2022/04/18 04:01:10;;;;;;;5.30;3.45;;;;;;;22.11;47.89;99485.03;5015461;28;20053;-88
2022/04/18 04:03:36;;;;;;;4.68;3.40;;;;;;;22.11;47.68;99490.34;5015137;28;20045;-90
2022/04/18 04:06:01;;;;;;;4.60;3.20;;;;;;;22.10;47.64;99486.84;5014128;28;20018;-89
2022/04/18 04:08:28;;;;;;;4.38;3.08;;;;;;;22.11;47.69;99490.34;5015935;28;20025;-90
2022/04/18 04:10:54;;;;;;;4.63;3.25;;;;;;;22.08;47.79;99482.59;5017456;28;20034;-89
2022/04/18 04:13:20;;;;;;;5.75;4.32;;;;;;;22.06;47.92;99488.00;5013450;28;20030;-90
2022/04/18 04:15:46;;;;;;;4.68;3.45;;;;;;;22.06;47.72;99482.69;5016824;28;20029;-88
2022/04/18 04:18:11;;;;;;;4.35;3.05;;;;;;;22.07;47.60;99484.38;4998151;28;20109;-88
2022/04/18 04:20:37;;;;;;;4.10;3.10;;;;;;;22.07;47.71;99488.84;5028696;28;20030;-88
2022/04/18 04:23:03;;;;;;;4.97;3.17;;;;;;;22.05;47.67;99499.59;5012385;28;20036;-89
2022/04/18 04:25:29;;;;;;;4.88;3.03;;;;;;;22.03;47.88;99497.97;5012005;28;20029;-89
2022/04/18 04:27:54;;;;;;;4.75;3.45;;;;;;;22.03;47.81;99497.97;5016562;28;20033;-89
2022/04/18 04:30:20;;;;;;;4.82;2.97;;;;;;;22.02;47.97;99506.91;5018939;28;20033;-87
2022/04/18 04:32:48;;;;;;;4.07;2.90;;;;;;;22.00;47.77;99505.16;5018761;28;20064;-89
2022/04/18 04:35:14;;;;;;;4.10;2.83;;;;;;;21.99;47.83;99499.97;5017663;28;20025;-88
2022/04/18 04:37:40;;;;;;;4.30;2.75;;;;;;;21.98;47.92;99501.78;5017788;28;20029;-90
2022/04/18 04:40:08;;;;;;;4.53;3.03;;;;;;;21.97;47.83;99508.03;5001274;28;20041;-89
2022/04/18 04:42:34;;;;;;;4.60;2.88;;;;;;;21.97;47.86;99510.69;5019022;28;20034;-90
2022/04/18 04:45:00;;;;;;;4.40;3.47;;;;;;;21.96;47.82;99511.66;5016458;28;20029;-89
2022/04/18 04:47:26;;;;;;;4.65;2.90;;;;;;;21.95;47.93;99517.94;5017350;28;20026;-88
2022/04/18 04:49:52;;;;;;;5.07;3.47;;;;;;;21.94;47.79;99520.69;5017640;28;20026;-86
2022/04/18 04:52:20;;;;;;;4.35;3.03;;;;;;;21.94;47.91;99521.50;5009490;28;20041;-89
2022/04/18 04:54:46;;;;;;;3.72;2.83;;;;;;;21.92;47.77;99512.81;5010007;28;20025;-87
2022/04/18 04:57:11;;;;;;;4.10;2.75;;;;;;;21.91;47.91;99521.72;5008913;28;20085;-89
2022/04/18 04:59:37;;;;;;;4.95;3.20;;;;;;;21.90;47.85;99524.47;5009002;28;20026;-88
2022/04/18 05:02:02;;;;;;;3.55;2.72;;;;;;;21.92;48.01;99533.19;5008732;28;20049;-89
2022/04/18 05:04:28;;;;;;;4.30;3.03;;;;;;;21.89;47.88;99518.28;5024506;28;20030;-87
2022/04/18 05:06:53;;;;;;;4.60;3.03;;;;;;;21.91;48.03;99536.81;5007566;28;20030;-87
2022/04/18 05:09:19;;;;;;;4.93;3.00;;;;;;;21.88;47.96;99521.91;5006856;28;20084;-89
2022/04/18 05:11:46;;;;;;;3.80;2.80;;;;;;;21.89;47.90;99534.22;5006877;28;20030;-87
2022/04/18 05:14:13;;;;;;;4.25;2.60;;;;;;;21.89;47.88;99528.91;5007512;28;20487;-88
2022/04/18 05:16:39;;;;;;;4.03;2.85;;;;;;;21.87;48.09;99530.84;5011416;28;20017;-90
2022/04/18 05:19:05;;;;;;;4.57;2.88;;;;;;;21.87;47.77;99525.53;5019846;28;20086;-89
2022/04/18 05:21:31;;;;;;;5.35;3.10;;;;;;;21.87;47.79;99530.84;5018783;28;20044;-89
2022/04/18 05:23:57;;;;;;;4.28;2.85;;;;;;;21.85;48.25;99527.44;5019030;28;20025;-90
2022/04/18 05:26:23;;;;;;;4.40;3.08;;;;;;;21.84;47.81;99536.34;4999454;28;20053;-88
2022/04/18 05:28:49;;;;;;;4.10;3.22;;;;;;;21.85;47.79;99543.38;5015549;28;20034;-89
2022/04/18 05:31:17;;;;;;;3.97;2.90;;;;;;;21.83;47.91;99535.50;4999949;28;20080;-90
2022/04/18 05:33:55;;;;;;;4.47;2.95;;;;;;;21.83;47.93;99534.63;5018396;28;20025;-90
2022/04/18 05:39:56;;;;;;;4.47;2.55;;;;;;;21.81;47.93;99541.84;5040487;28;20045;-88
2022/04/18 05:42:24;;;;;;;4.97;2.42;;;;;;;21.80;47.83;99545.47;5010471;28;20084;-90
2022/04/18 05:44:51;;;;;;;4.72;2.88;;;;;;;21.81;47.97;99555.13;5003020;28;20038;-90
2022/04/18 05:47:16;;;;;;;4.30;2.60;;;;;;;21.79;47.84;99554.38;5004132;28;20045;-88
2022/04/18 05:49:42;;;;;;;3.53;2.40;;;;;;;21.79;47.85;99554.38;5013398;28;20022;-90
2022/04/18 05:52:07;;;;;;;3.45;2.50;;;;;;;21.77;48.07;99550.94;5005788;28;20025;-87
2022/04/18 05:54:33;;;;;;;4.65;2.83;;;;;;;21.78;47.99;99550.03;5006909;28;20044;-88
2022/04/18 05:57:16;;;;;;;4.68;2.78;;;;;;;21.76;48.00;99555.44;5006108;28;20082;-90
2022/04/18 06:27:06;;;;;;;3.42;2.30;;;;;;;21.70;47.99;99564.63;5005268;28;20038;-88
2022/04/18 06:29:32;;;;;;;2.95;2.25;;;;;;;21.69;48.00;99565.53;5005023;28;20123;-89
2022/04/18 06:31:58;;;;;;;4.28;2.67;;;;;;;21.69;47.98;99564.69;5005616;28;20026;-89
2022/04/18 06:34:25;;;;;;;3.83;2.72;;;;;;;21.69;47.91;99570.84;5004159;28;20088;-89
2022/04/18 06:36:51;;;;;;;3.60;2.58;;;;;;;21.68;48.01;99574.47;5005598;28;20026;-88
2022/04/18 06:39:17;;;;;;;3.58;2.35;;;;;;;21.69;47.95;99564.69;5008635;28;20038;-88
2022/04/18 06:41:42;;;;;;;3.30;2.30;;;;;;;21.67;47.85;99562.13;5007088;28;20090;-88
2022/04/18 06:44:08;;;;;;;3.42;2.38;;;;;;;21.66;47.91;99565.75;5013316;28;20018;-90
2022/04/18 06:46:34;;;;;;;3.95;2.30;;;;;;;21.67;48.11;99562.13;5013814;28;20086;-91
2022/04/18 06:49:00;;;;;;;3.17;2.30;;;;;;;21.69;47.97;99560.22;4996085;28;20034;-89
2022/04/18 06:51:26;;;;;;;3.47;2.30;;;;;;;21.67;47.91;99562.13;5007616;28;20026;-89
2022/04/18 06:53:51;;;;;;;3.60;2.30;;;;;;;21.66;48.08;99565.75;5006886;28;20049;-90
2022/04/18 06:59:20;;;;;;;3.92;2.58;;;;;;;21.64;48.10;99570.28;4959863;29;20468;-89
2022/04/18 07:01:46;;;;;;;3.03;2.30;;;;;;;21.66;48.18;99567.53;4942385;29;20026;-88
2022/04/18 07:04:13;;;;;;;3.63;2.60;;;;;;;21.64;48.14;99566.78;4968863;28;20045;-88
2022/04/18 07:06:40;;;;;;;3.72;2.25;;;;;;;21.64;48.01;99567.63;4999787;28;20153;-87
2022/04/18 07:09:05;;;;;;;3.92;2.30;;;;;;;21.64;48.18;99577.41;5000932;28;20364;-87
2022/04/18 07:11:31;;;;;;;4.25;2.58;;;;;;;21.62;47.86;99569.53;5000719;28;20022;-86
2022/04/18 07:13:56;;;;;;;3.95;2.50;;;;;;;21.62;47.88;99579.28;4999951;28;20033;-87
2022/04/18 07:16:22;;;;;;;3.42;2.53;;;;;;;21.61;48.12;99581.09;5001562;28;20018;-86
2022/04/18 07:18:47;;;;;;;4.57;2.50;;;;;;;21.62;48.04;99580.16;5002307;28;20030;-87
2022/04/18 07:21:13;;;;;;;4.03;2.63;;;;;;;21.60;48.10;99582.91;5001891;28;20041;-87
2022/04/18 07:23:39;;;;;;;3.58;2.35;;;;;;;21.60;48.13;99590.03;5004746;28;20030;-88
2022/04/18 07:26:04;;;;;;;3.75;2.40;;;;;;;21.59;48.10;99586.50;5005948;28;20087;-86
2022/04/18 07:28:30;;;;;;;3.22;2.50;;;;;;;21.60;48.04;99592.69;5006505;28;20049;-86
2022/04/18 07:30:55;;;;;;;4.00;2.58;;;;;;;21.61;47.91;99594.38;5005262;28;20115;-87
2022/04/18 07:36:43;;;;;;;3.90;2.40;;;;;;;21.59;47.84;99590.94;5018734;28;20116;-85
2022/04/18 07:39:08;;;;;;;4.15;2.35;;;;;;;21.59;48.01;99585.63;5001430;28;20456;-83
2022/04/18 07:41:34;;;;;;;3.90;2.63;;;;;;;21.58;48.03;99584.81;5001864;28;20451;-84
2022/04/18 07:44:01;;;;;;;4.00;2.35;;;;;;;21.58;48.02;99589.25;5001713;28;20025;-85
2022/04/18 07:46:27;;;;;;;4.57;2.50;;;;;;;21.56;48.13;99588.50;5002058;28;20111;-85
2022/04/18 07:48:53;;;;;;;2.85;2.00;;;;;;;21.56;47.89;99588.50;5002033;28;20531;-86
2022/04/18 07:51:32;;;;;;;4.07;2.25;;;;;;;21.56;48.06;99585.84;5002110;28;20040;-86
2022/04/18 07:53:58;;;;;;;3.67;2.47;;;;;;;21.58;48.15;99594.56;5022187;28;20057;-87
2022/04/18 07:56:25;;;;;;;3.70;2.13;;;;;;;21.56;48.09;99599.13;5005025;28;20046;-87
2022/04/18 07:58:51;;;;;;;3.35;2.40;;;;;;;21.56;48.31;99586.69;5024210;28;20030;-89
2022/04/18 08:01:18;;;;;;;3.42;2.47;;;;;;;21.57;48.38;99585.75;5003825;28;20018;-87
2022/04/18 08:03:44;;;;;;;3.83;2.22;;;;;;;21.58;48.33;99589.25;5021353;28;20029;-86
2022/04/18 08:06:10;;;;;;;4.07;2.55;;;;;;;21.57;48.29;99582.25;5022068;28;20434;-88
2022/04/18 08:08:36;;;;;;;3.95;2.55;;;;;;;21.59;48.43;99585.63;5003596;28;20022;-86
2022/04/18 08:11:03;;;;;;;3.95;2.20;;;;;;;21.58;48.27;99579.50;5007966;28;20045;-91
2022/04/18 08:13:29;;;;;;;3.08;2.20;;;;;;;21.58;48.33;99578.63;5008545;28;20045;-87
2022/04/18 08:15:56;;;;;;;4.90;2.30;;;;;;;21.57;48.49;99582.25;5011885;28;20029;-90
2022/04/18 08:18:25;;;;;;;3.47;2.20;;;;;;;21.58;48.51;99584.81;5004250;28;20034;-90
2022/04/18 08:20:52;;;;;;;3.20;2.30;;;;;;;21.58;48.54;99583.94;4982820;28;20128;-89
2022/04/18 08:23:18;;;;;;;3.55;2.42;;;;;;;21.58;48.29;99578.63;5009206;28;20032;-87
2022/04/18 08:25:43;;;;;;;4.38;2.40;;;;;;;21.59;48.21;99588.28;5009821;28;20025;-89
2022/04/18 08:28:09;;;;;;;4.18;2.60;;;;;;;21.58;48.31;99590.13;5031073;28;20040;-90
2022/04/18 08:30:34;;;;;;;5.03;2.80;;;;;;;21.60;48.38;99592.69;5010201;28;20041;-88
2022/04/18 08:33:00;;;;;;;3.78;2.22;;;;;;;21.59;48.17;99586.50;5013327;28;20106;-90
2022/04/18 08:35:26;;;;;;;3.30;2.38;;;;;;;21.57;48.04;99591.06;5011050;28;20026;-91
2022/04/18 08:37:52;;;;;;;4.22;2.75;;;;;;;21.57;48.18;99585.75;5013002;28;20030;-90
2022/04/18 08:40:18;;;;;;;3.83;2.58;;;;;;;21.58;48.27;99586.59;5011926;28;20026;-90
2022/04/18 08:42:44;;;;;;;6.15;3.90;;;;;;;21.58;48.13;99589.25;5013349;28;20014;-90
2022/04/18 08:45:14;;;;;;;4.95;3.55;;;;;;;21.57;48.14;99580.44;4995952;28;20037;-89
2022/04/18 08:53:13;;;;;;;6.75;3.92;;;;;;;21.58;48.11;99583.94;5023311;28;20045;-92
2022/04/18 08:55:42;;;;;;;5.45;3.90;;;;;;;21.59;48.21;99582.97;5008862;28;20041;-90
2022/04/18 08:58:11;;;;;;;6.90;4.60;;;;;;;21.58;47.98;99583.94;5008713;28;20097;-91
2022/04/18 09:00:37;;;;;;;7.50;4.65;;;;;;;21.59;48.12;99589.16;5007388;28;20052;-90
2022/04/18 09:03:03;;;;;;;5.88;3.90;;;;;;;21.59;48.13;99588.28;5012388;28;20534;-92
2022/04/18 09:05:37;;;;;;;6.15;3.88;;;;;;;21.57;48.01;99587.53;5013683;28;20033;-91
2022/04/18 09:08:22;;;;;;;5.32;3.58;;;;;;;21.58;48.14;99589.25;5010617;28;20037;-92
2022/04/18 09:10:48;;;;;;;5.95;3.70;;;;;;;21.58;48.06;99590.13;5001519;28;20093;-90
2022/04/18 09:13:14;;;;;;;6.35;3.50;;;;;;;21.57;47.72;99590.19;5008757;28;20057;-87
2022/04/18 09:15:51;;;;;;;6.15;3.50;;;;;;;21.56;48.10;99580.53;5003614;28;20045;-86
2022/04/18 09:18:19;;;;;;;5.25;3.63;;;;;;;21.56;48.15;99581.38;5004499;28;20034;-87
2022/04/18 09:20:56;;;;;;;5.50;3.35;;;;;;;21.57;48.09;99582.25;5002741;28;20040;-86
2022/04/18 09:23:33;;;;;;;5.72;3.67;;;;;;;21.59;47.96;99582.97;5003239;28;20095;-87
2022/04/18 09:26:02;;;;;;;5.68;3.42;;;;;;;21.58;48.03;99583.94;5005425;28;20044;-87
2022/04/18 09:28:32;;;;;;;7.50;5.38;;;;;;;21.58;47.81;99586.59;5001872;28;20057;-88
2022/04/18 09:31:01;;;;;;;8.20;5.32;;;;;;;21.58;48.04;99573.31;5001979;28;20411;-89
2022/04/18 09:33:31;;;;;;;10.75;7.88;;;;;;;21.58;48.37;99570.66;5010749;28;20097;-89
2022/04/18 09:36:16;;;;;;;15.77;12.13;;;;;;;21.59;48.35;99564.41;5010528;28;20048;-87
2022/04/18 09:38:48;;;;;;;28.30;21.15;;;;;;;21.60;48.50;99566.97;5028181;28;20033;-89
2022/04/18 09:41:34;;;;;;;34.50;24.35;;;;;;;21.62;48.39;99566.88;5006713;28;20033;-88
2022/04/18 09:43:59;;;;;;;34.80;27.53;;;;;;;21.63;48.19;99562.41;5006782;28;20056;-87
2022/04/18 09:46:25;;;;;;;37.92;28.40;;;;;;;21.60;48.50;99569.63;5002638;28;20034;-89
2022/04/18 09:48:52;;;;;;;43.65;32.35;;;;;;;21.60;48.68;99560.81;4994518;28;20007;-87
2022/04/18 09:51:27;;;;;;;42.63;33.20;;;;;;;21.59;48.61;99572.38;4965187;28;20042;-87
2022/04/18 09:53:57;;;;;;;44.05;34.60;;;;;;;21.59;48.50;99559.09;4993091;28;20026;-90
2022/04/18 09:56:29;;;;;;;53.05;41.00;;;;;;;21.60;48.94;99566.13;4967715;28;20089;-89
2022/04/18 09:58:58;;;;;;;53.35;41.95;;;;;;;21.59;48.66;99554.66;4995606;28;20053;-90
2022/04/18 10:01:24;;;;;;;54.28;43.22;;;;;;;21.62;48.72;99566.00;4977114;28;20053;-88
2022/04/18 10:04:12;;;;;;;52.90;42.08;;;;;;;21.62;49.00;99558.03;4997539;28;20030;-89
2022/04/18 10:06:41;;;;;;;58.85;47.72;;;;;;;21.60;49.20;99559.00;4975081;28;20034;-89
2022/04/18 10:09:10;;;;;;;61.15;46.50;;;;;;;21.62;48.99;99556.25;4965507;28;20038;-89
2022/04/18 10:11:35;;;;;;;65.72;50.10;;;;;;;21.62;49.11;99552.72;4988054;28;20030;-89
2022/04/18 10:14:03;;;;;;;66.65;51.78;;;;;;;21.62;48.90;99558.91;4985927;28;20452;-88
2022/04/18 10:16:30;;;;;;;69.28;53.28;;;;;;;21.62;49.36;99548.28;4983700;28;20073;-90
2022/04/18 10:18:59;;;;;;;65.55;52.83;;;;;;;21.62;49.39;99548.28;5002500;28;20026;-86
2022/04/18 10:21:32;;;;;;;65.78;53.88;;;;;;;21.63;49.23;99555.31;4982477;28;20025;-89
2022/04/18 10:24:25;;;;;;;68.63;53.88;;;;;;;21.63;49.30;99552.66;4982873;28;20130;-86
2022/04/18 10:27:03;;;;;;;67.72;51.38;;;;;;;21.64;49.39;99549.03;4988770;28;20028;-90
2022/04/18 10:29:40;;;;;;;96.35;60.45;;;;;;;21.71;49.34;99541.59;4985925;28;20085;-87
2022/04/18 10:35:28;;;;;;;77.55;58.40;;;;;;;21.75;49.78;99547.56;4999524;28;20503;-86
2022/04/18 10:37:55;;;;;;;71.22;53.50;;;;;;;21.72;49.64;99544.16;4997975;28;20022;-86
2022/04/18 10:40:22;;;;;;;70.88;52.28;;;;;;;21.72;49.54;99544.16;4997153;28;20061;-85
2022/04/18 10:42:48;;;;;;;61.65;50.15;;;;;;;21.69;49.45;99544.28;4980104;28;20034;-86
2022/04/18 10:45:16;;;;;;;63.78;49.40;;;;;;;21.69;49.19;99538.97;4979555;28;20349;-86
2022/04/18 10:48:11;;;;;;;57.88;46.08;;;;;;;21.68;48.68;99545.25;4979930;28;20026;-84
2022/04/18 10:50:41;;;;;;;54.38;41.00;;;;;;;21.66;48.77;99533.88;4980228;28;20436;-86
2022/04/18 10:53:29;;;;;;;49.63;40.08;;;;;;;21.66;48.61;99528.56;4980886;28;20045;-85
2022/04/18 10:56:15;;;;;;;48.05;36.53;;;;;;;21.64;48.30;99519.81;4971406;28;20038;-87
2022/04/18 10:58:43;;;;;;;40.40;31.13;;;;;;;21.63;48.50;99525.22;4996674;28;20129;-86
2022/04/18 11:01:10;;;;;;;37.42;28.20;;;;;;;21.62;47.86;99516.44;4979960;28;20345;-87
2022/04/18 11:03:44;;;;;;;36.05;25.38;;;;;;;21.60;47.71;99521.00;4996869;28;20045;-87
2022/04/18 11:06:16;;;;;;;29.40;22.75;;;;;;;21.58;47.48;99515.78;4998157;28;20054;-84
2022/04/18 11:08:56;;;;;;;27.27;20.48;;;;;;;21.59;47.22;99505.97;4980409;28;20034;-85
2022/04/18 11:11:22;;;;;;;25.90;20.75;;;;;;;21.58;47.39;99504.28;4980994;28;20104;-86
2022/04/18 11:13:49;;;;;;;23.23;19.00;;;;;;;21.59;47.67;99505.97;5001714;28;20113;-87
2022/04/18 11:16:23;;;;;;;23.75;19.38;;;;;;;21.56;47.67;99500.88;5000264;28;20042;-86
2022/04/18 11:19:09;;;;;;;23.65;18.48;;;;;;;21.56;47.69;99500.88;5002622;28;20493;-87
2022/04/18 11:21:56;;;;;;;22.97;18.90;;;;;;;21.57;47.63;99500.78;4984028;28;20031;-87
2022/04/18 11:24:44;;;;;;;19.55;16.38;;;;;;;21.57;47.88;99497.28;4984546;28;20034;-86
2022/04/18 11:27:15;;;;;;;21.63;17.35;;;;;;;21.58;47.96;99493.66;4985635;28;20148;-87
2022/04/18 11:29:45;;;;;;;20.98;16.50;;;;;;;21.56;47.92;99488.44;4987530;28;20090;-86
2022/04/18 11:32:15;;;;;;;20.38;16.42;;;;;;;21.58;47.70;99499.84;5003092;28;20475;-87
2022/04/18 11:34:44;;;;;;;22.52;16.58;;;;;;;21.58;47.79;99491.00;4984975;28;20030;-86
2022/04/18 11:37:12;;;;;;;21.65;16.92;;;;;;;21.58;47.88;99494.53;4983250;28;20038;-86
2022/04/18 11:39:43;;;;;;;20.98;16.73;;;;;;;21.59;48.09;99482.09;4981337;28;20026;-84
2022/04/18 11:42:09;;;;;;;19.63;15.93;;;;;;;21.59;48.01;99487.41;4980599;28;20034;-86
2022/04/18 11:44:39;;;;;;;21.10;15.20;;;;;;;21.58;48.01;99488.34;4980517;28;20041;-86
2022/04/18 11:47:09;;;;;;;17.92;14.35;;;;;;;21.60;47.96;99486.47;4999340;28;20109;-85
2022/04/18 11:49:35;;;;;;;17.75;14.35;;;;;;;21.62;47.71;99479.25;4981232;28;20022;-86
2022/04/18 11:52:01;;;;;;;17.95;13.73;;;;;;;21.63;47.62;99472.97;4981224;28;20034;-87
2022/04/18 11:54:27;;;;;;;17.48;13.15;;;;;;;21.63;47.77;99475.63;4981133;28;20423;-85
2022/04/18 11:57:00;;;;;;;16.75;13.43;;;;;;;21.63;47.59;99475.63;4998189;28;20054;-86
2022/04/18 11:59:29;;;;;;;17.35;12.25;;;;;;;21.63;47.28;99470.34;4996799;28;20050;-86
2022/04/18 12:07:25;;;;;;;14.30;11.57;;;;;;;21.67;47.39;99461.22;4995956;28;20113;-86
2022/04/18 12:09:51;;;;;;;13.90;10.63;;;;;;;21.69;47.23;99459.31;5000038;28;20365;-85
2022/04/18 12:12:31;;;;;;;14.32;10.75;;;;;;;21.70;47.60;99453.09;4982948;28;20022;-86
2022/04/18 12:15:01;;;;;;;13.52;10.93;;;;;;;21.71;47.69;99446.81;4983043;28;20043;-85
2022/04/18 12:17:27;;;;;;;14.88;11.02;;;;;;;21.73;47.67;99450.25;4983772;28;20034;-86
2022/04/18 12:19:53;;;;;;;15.45;11.18;;;;;;;21.75;47.72;99451.94;4985357;28;20080;-86
2022/04/18 12:22:21;;;;;;;12.45;10.73;;;;;;;21.75;47.35;99446.63;5002674;28;20475;-86
2022/04/18 12:24:47;;;;;;;11.73;9.75;;;;;;;21.75;46.96;99446.63;5002603;28;20049;-85
2022/04/18 12:27:14;;;;;;;13.13;9.35;;;;;;;21.77;47.13;99439.41;5002231;28;20027;-86
2022/04/18 12:29:40;;;;;;;12.20;9.00;;;;;;;21.78;47.23;99446.44;4984610;28;20511;-86
2022/04/18 12:32:06;;;;;;;12.25;9.73;;;;;;;21.78;47.33;99446.44;4984556;28;20026;-85
2022/04/18 12:34:31;;;;;;;10.45;8.82;;;;;;;21.79;47.40;99437.53;4985085;28;20026;-86
2022/04/18 12:36:59;;;;;;;11.85;9.35;;;;;;;21.80;47.31;99444.53;4985628;28;20037;-86
2022/04/18 12:39:25;;;;;;;11.35;8.65;;;;;;;21.80;47.15;99436.56;4985821;28;20037;-87